Time;durP1;ratioP1;P1;durP2;ratioP2;P2;SDS_P1;SDS_P2;PMS_P1;PMS_P2;Temp;Humidity;BMP_temperature;BMP_pressure;BME280_temperature;BME280_humidity;BME280_pressure;Samples;Min_cycle;Max_cycle;Signal;HPM_P1;HPM_P2
2023/04/12 00:00:14;;;;;;;3.53;1.30;;;14.30;74.80;;;;;;4986573;28;20532;-72
2023/04/12 00:02:43;;;;;;;3.33;1.10;;;14.30;74.50;;;;;;4989613;28;20914;-73
2023/04/12 00:05:13;;;;;;;2.10;1.00;;;14.30;74.50;;;;;;4985932;28;20983;-73
2023/04/12 00:07:45;;;;;;;2.87;1.30;;;14.30;74.90;;;;;;4986538;28;20459;-73
2023/04/12 00:10:14;;;;;;;2.93;1.00;;;14.30;74.60;;;;;;4986096;28;20503;-73
2023/04/12 00:12:42;;;;;;;2.47;1.10;;;14.30;74.70;;;;;;4980548;28;20455;-73
2023/04/12 00:15:13;;;;;;;3.33;1.07;;;14.30;74.60;;;;;;4983878;28;20457;-73
2023/04/12 00:17:42;;;;;;;3.50;1.00;;;14.20;75.00;;;;;;4979105;28;20522;-72
2023/04/12 00:20:11;;;;;;;2.20;0.97;;;14.30;74.20;;;;;;4986133;28;20818;-73
2023/04/12 00:22:41;;;;;;;2.93;1.20;;;14.20;74.80;;;;;;4979205;28;20432;-73
2023/04/12 00:25:10;;;;;;;2.20;0.90;;;14.20;74.70;;;;;;4993144;28;20454;-73
2023/04/12 00:27:40;;;;;;;4.03;1.47;;;14.20;74.40;;;;;;4979037;28;20450;-72
2023/04/12 00:30:09;;;;;;;1.87;1.37;;;14.20;75.10;;;;;;4969822;28;20517;-73
2023/04/12 00:32:39;;;;;;;2.50;1.23;;;14.20;74.60;;;;;;4974999;28;20520;-73
2023/04/12 00:35:08;;;;;;;3.43;1.07;;;14.20;75.00;;;;;;4974944;28;20450;-73
2023/04/12 00:37:37;;;;;;;2.53;1.53;;;14.20;74.80;;;;;;4977607;28;20983;-73
2023/04/12 00:40:10;;;;;;;2.00;0.93;;;14.20;75.10;;;;;;4984052;28;20473;-73
2023/04/12 00:42:38;;;;;;;2.80;1.20;;;14.20;74.90;;;;;;4986172;28;20476;-72
2023/04/12 00:45:08;;;;;;;2.57;1.27;;;14.20;74.60;;;;;;4978815;28;20569;-72
2023/04/12 00:47:41;;;;;;;2.63;1.00;;;14.20;75.20;;;;;;4986282;28;20472;-74
2023/04/12 00:50:11;;;;;;;3.00;1.00;;;14.20;75.90;;;;;;4977700;28;20567;-72
2023/04/12 00:52:41;;;;;;;2.43;0.90;;;14.20;75.40;;;;;;4969735;28;20964;-72
2023/04/12 00:55:10;;;;;;;2.20;1.17;;;14.20;76.00;;;;;;5001373;28;20482;-73
2023/04/12 00:57:39;;;;;;;2.57;0.80;;;14.20;75.20;;;;;;4983901;28;20536;-73
2023/04/12 01:00:11;;;;;;;2.07;1.00;;;14.20;75.30;;;;;;4982931;28;20469;-73
2023/04/12 01:02:45;;;;;;;2.73;1.10;;;14.20;75.70;;;;;;4986484;28;20441;-72
2023/04/12 01:05:21;;;;;;;2.87;1.10;;;14.20;76.00;;;;;;4978614;28;20505;-73
2023/04/12 01:08:05;;;;;;;2.67;1.27;;;14.20;76.10;;;;;;4981967;28;20825;-73
2023/04/12 01:10:44;;;;;;;4.83;1.40;;;14.20;76.30;;;;;;4985412;28;20552;-73
2023/04/12 01:13:24;;;;;;;2.20;1.13;;;14.20;76.30;;;;;;4985803;28;20507;-73
2023/04/12 01:16:02;;;;;;;1.90;0.90;;;14.20;76.40;;;;;;4977870;28;20455;-73
2023/04/12 01:18:39;;;;;;;2.33;1.07;;;14.20;76.30;;;;;;4962168;28;20776;-72
2023/04/12 01:21:16;;;;;;;3.40;1.07;;;14.20;75.90;;;;;;4978222;28;21016;-73
2023/04/12 01:23:58;;;;;;;4.37;1.50;;;14.20;76.60;;;;;;4986611;28;20464;-73
2023/04/12 01:26:41;;;;;;;2.63;0.90;;;14.10;76.50;;;;;;5002955;28;20486;-74
2023/04/12 01:29:15;;;;;;;2.17;1.10;;;14.20;76.50;;;;;;4984765;28;20476;-73
2023/04/12 01:31:52;;;;;;;1.80;0.80;;;14.10;76.30;;;;;;4986702;28;20480;-72
2023/04/12 01:34:24;;;;;;;2.27;1.03;;;14.10;76.60;;;;;;4980335;28;20476;-72
2023/04/12 01:36:54;;;;;;;2.47;1.20;;;14.20;76.70;;;;;;4979961;28;20448;-73
2023/04/12 01:39:23;;;;;;;1.83;1.07;;;14.10;76.70;;;;;;4985439;28;20530;-73
2023/04/12 01:41:53;;;;;;;2.83;1.20;;;14.10;77.00;;;;;;4985623;28;20452;-73
2023/04/12 01:44:24;;;;;;;2.43;0.90;;;14.10;76.80;;;;;;4985398;28;20481;-73
2023/04/12 01:46:53;;;;;;;2.93;1.20;;;14.10;76.40;;;;;;4985406;28;20442;-73
2023/04/12 01:49:24;;;;;;;2.40;1.57;;;14.10;77.10;;;;;;4983054;28;20511;-73
2023/04/12 01:52:01;;;;;;;1.93;0.90;;;14.10;76.50;;;;;;4973358;28;20431;-73
2023/04/12 01:54:34;;;;;;;2.50;0.97;;;14.10;77.00;;;;;;4981566;28;20568;-73
2023/04/12 01:57:07;;;;;;;2.80;1.00;;;14.10;76.50;;;;;;4966464;28;20822;-73
2023/04/12 01:59:40;;;;;;;2.63;0.93;;;14.10;77.00;;;;;;4985176;28;20477;-73
2023/04/12 02:02:10;;;;;;;2.17;1.13;;;14.10;76.80;;;;;;4983521;28;21380;-73
2023/04/12 02:04:41;;;;;;;2.10;1.03;;;14.10;80.60;;;;;;4979599;28;20575;-73
2023/04/12 02:07:10;;;;;;;3.03;0.90;;;14.10;77.10;;;;;;4978540;28;20544;-72
2023/04/12 02:09:39;;;;;;;1.80;1.00;;;14.10;77.70;;;;;;4980314;28;20482;-73
2023/04/12 02:12:12;;;;;;;2.00;0.80;;;14.10;77.60;;;;;;4980620;28;20880;-73
2023/04/12 02:14:42;;;;;;;2.13;1.00;;;14.10;77.40;;;;;;4986987;28;20499;-73
2023/04/12 02:17:11;;;;;;;5.40;1.07;;;14.10;77.00;;;;;;4989361;28;20449;-72
2023/04/12 02:19:41;;;;;;;1.70;0.80;;;14.10;77.60;;;;;;4982683;28;20484;-73
2023/04/12 02:22:12;;;;;;;2.87;1.30;;;14.10;77.80;;;;;;4990854;28;20973;-73
2023/04/12 02:24:40;;;;;;;2.17;0.93;;;14.10;77.50;;;;;;4989954;28;20485;-73
2023/04/12 02:27:09;;;;;;;2.37;0.90;;;14.10;77.90;;;;;;4991508;28;20483;-73
2023/04/12 02:29:38;;;;;;;1.60;0.80;;;;;;;;;;4990082;28;20491;-73
2023/04/12 02:32:08;;;;;;;2.40;0.97;;;14.10;76.40;;;;;;4990662;28;20472;-73
2023/04/12 02:34:37;;;;;;;3.20;1.00;;;14.10;77.30;;;;;;4991138;28;20882;-73
2023/04/12 02:37:20;;;;;;;5.93;1.30;;;14.10;77.50;;;;;;4990159;28;21016;-72
2023/04/12 02:39:49;;;;;;;2.90;1.37;;;14.10;77.80;;;;;;4982262;28;20510;-73
2023/04/12 02:42:18;;;;;;;2.53;0.90;;;14.10;77.30;;;;;;4988017;28;20467;-73
2023/04/12 02:44:50;;;;;;;1.60;0.87;;;14.00;77.80;;;;;;4968806;28;20571;-67
2023/04/12 02:47:27;;;;;;;2.27;0.70;;;14.00;77.30;;;;;;4987612;28;20452;-68
2023/04/12 02:49:56;;;;;;;2.67;1.00;;;14.00;77.30;;;;;;4989342;28;20571;-68
2023/04/12 02:52:27;;;;;;;2.20;0.93;;;14.00;77.70;;;;;;4992240;28;20789;-69
2023/04/12 02:55:10;;;;;;;2.73;1.20;;;14.00;77.80;;;;;;4988840;28;20461;-68
2023/04/12 02:57:40;;;;;;;1.80;0.70;;;14.00;77.90;;;;;;4987692;28;20444;-68
2023/04/12 03:00:12;;;;;;;2.30;0.73;;;14.00;77.40;;;;;;4990393;28;20462;-67
2023/04/12 03:02:50;;;;;;;2.70;0.93;;;14.00;77.50;;;;;;4982364;28;20477;-67
2023/04/12 03:05:24;;;;;;;1.60;0.80;;;14.00;77.40;;;;;;4973139;28;20466;-68
2023/04/12 03:07:53;;;;;;;2.90;1.10;;;14.00;77.50;;;;;;4980810;28;20448;-67
2023/04/12 03:10:27;;;;;;;2.20;0.90;;;14.00;77.70;;;;;;4983307;28;20477;-67
2023/04/12 03:13:03;;;;;;;2.20;1.07;;;14.00;77.80;;;;;;4982753;28;20977;-66
2023/04/12 03:15:38;;;;;;;2.10;0.77;;;14.00;78.30;;;;;;4983372;28;20542;-67
2023/04/12 03:18:08;;;;;;;2.37;0.90;;;14.00;77.90;;;;;;4971482;28;20461;-66
2023/04/12 03:20:45;;;;;;;1.83;0.80;;;14.00;77.80;;;;;;4986006;28;20516;-69
2023/04/12 03:23:16;;;;;;;1.80;0.83;;;14.00;78.10;;;;;;4985234;28;20449;-68
2023/04/12 03:25:48;;;;;;;2.17;1.03;;;14.00;78.70;;;;;;4978977;28;20476;-67
2023/04/12 03:28:31;;;;;;;1.70;0.73;;;14.00;78.80;;;;;;4993538;28;20461;-67
2023/04/12 03:31:01;;;;;;;2.90;1.20;;;14.00;78.30;;;;;;4985405;28;20472;-67
2023/04/12 03:33:47;;;;;;;2.70;0.87;;;14.00;78.50;;;;;;4982725;28;20605;-68
2023/04/12 03:36:26;;;;;;;2.90;0.70;;;14.00;78.60;;;;;;4987237;28;20457;-67
2023/04/12 03:39:02;;;;;;;1.60;0.90;;;14.00;78.50;;;;;;4974340;28;20872;-67
2023/04/12 03:41:34;;;;;;;1.70;0.80;;;14.00;79.10;;;;;;4987565;28;20529;-68
2023/04/12 03:44:05;;;;;;;2.07;0.80;;;14.00;79.10;;;;;;4978454;28;20481;-67
2023/04/12 03:46:36;;;;;;;1.67;0.73;;;14.00;78.80;;;;;;4969907;28;20476;-66
2023/04/12 03:49:11;;;;;;;2.23;0.90;;;13.90;78.70;;;;;;5001484;28;20479;-68
2023/04/12 03:51:42;;;;;;;2.70;0.73;;;13.90;78.90;;;;;;4986333;28;20914;-67
2023/04/12 03:54:12;;;;;;;1.60;0.80;;;13.90;79.60;;;;;;4987121;28;20520;-67
2023/04/12 03:56:56;;;;;;;2.57;0.90;;;13.90;79.50;;;;;;4987420;28;20848;-68
2023/04/12 03:59:31;;;;;;;1.80;0.90;;;13.90;79.40;;;;;;4987304;28;20563;-68
2023/04/12 04:02:01;;;;;;;2.20;0.80;;;13.90;80.90;;;;;;4984605;28;20823;-67
2023/04/12 04:04:36;;;;;;;1.50;0.80;;;14.00;79.70;;;;;;4977093;28;20482;-67
2023/04/12 04:07:08;;;;;;;1.80;1.00;;;13.90;80.00;;;;;;4980064;28;20441;-67
2023/04/12 04:09:45;;;;;;;2.13;0.80;;;13.90;80.20;;;;;;4979256;28;20504;-67
2023/04/12 04:12:14;;;;;;;1.80;0.70;;;13.90;80.20;;;;;;5000607;28;20514;-67
2023/04/12 04:14:49;;;;;;;2.27;0.90;;;13.90;80.60;;;;;;4982824;28;20728;-67
2023/04/12 04:17:47;;;;;;;4.00;0.90;;;13.90;80.90;;;;;;4976205;28;20553;-67
2023/04/12 04:20:19;;;;;;;2.93;0.90;;;13.90;81.10;;;;;;4985605;28;20886;-68
2023/04/12 04:22:52;;;;;;;1.50;0.70;;;13.90;81.20;;;;;;4986921;28;20540;-67
2023/04/12 04:25:28;;;;;;;1.70;0.90;;;13.90;81.30;;;;;;4987308;28;20562;-67
2023/04/12 04:28:01;;;;;;;2.73;1.17;;;13.90;81.20;;;;;;4987143;28;20464;-68
2023/04/12 04:30:33;;;;;;;1.50;0.67;;;13.90;81.50;;;;;;4986810;28;20453;-68
2023/04/12 04:33:03;;;;;;;2.00;0.93;;;13.90;81.60;;;;;;4987022;28;20523;-68
2023/04/12 04:35:35;;;;;;;1.60;0.97;;;13.90;81.50;;;;;;4987540;28;20816;-66
2023/04/12 04:38:24;;;;;;;2.53;0.80;;;13.90;81.80;;;;;;4987421;28;20874;-66
2023/04/12 04:41:01;;;;;;;2.00;0.80;;;13.90;81.90;;;;;;4986112;28;20473;-68
2023/04/12 04:43:45;;;;;;;1.73;0.63;;;13.90;82.00;;;;;;4983012;28;20492;-73
2023/04/12 04:46:16;;;;;;;1.70;0.83;;;13.90;82.10;;;;;;4986679;28;20479;-73
2023/04/12 04:48:45;;;;;;;1.70;0.80;;;13.80;82.20;;;;;;4986219;28;20540;-65
2023/04/12 04:51:15;;;;;;;1.97;0.90;;;13.80;82.20;;;;;;4982854;28;20625;-66
2023/04/12 04:53:44;;;;;;;2.10;1.10;;;13.80;82.30;;;;;;4970320;28;20558;-67
2023/04/12 04:56:15;;;;;;;1.80;0.90;;;13.80;82.60;;;;;;4980314;28;20954;-67
2023/04/12 04:58:46;;;;;;;1.53;0.77;;;13.80;82.80;;;;;;4978641;28;20951;-66
2023/04/12 05:01:15;;;;;;;1.37;0.70;;;13.80;82.70;;;;;;4985577;28;21004;-66
2023/04/12 05:03:48;;;;;;;3.73;0.83;;;13.90;83.10;;;;;;4982117;28;20583;-64
2023/04/12 05:06:21;;;;;;;1.60;0.67;;;13.80;83.00;;;;;;4985775;28;20941;-65
2023/04/12 05:08:51;;;;;;;2.00;0.70;;;13.90;83.10;;;;;;4980530;28;20453;-66
2023/04/12 05:11:20;;;;;;;1.57;0.70;;;13.80;83.10;;;;;;4983135;28;20532;-67
2023/04/12 05:13:50;;;;;;;2.03;0.83;;;13.80;83.20;;;;;;4961527;28;20554;-65
2023/04/12 05:16:19;;;;;;;1.97;0.90;;;13.80;83.30;;;;;;4976017;28;20456;-66
2023/04/12 05:18:48;;;;;;;2.03;0.90;;;13.80;83.50;;;;;;4983229;28;20590;-65
2023/04/12 05:21:16;;;;;;;2.13;0.60;;;13.80;83.50;;;;;;4977487;28;20464;-64
2023/04/12 05:23:47;;;;;;;1.50;0.50;;;13.80;83.70;;;;;;4981146;28;20442;-65
2023/04/12 05:26:20;;;;;;;1.80;0.60;;;13.80;83.60;;;;;;4981812;28;20465;-66
2023/04/12 05:28:51;;;;;;;1.50;0.80;;;13.80;83.90;;;;;;4983087;28;20483;-65
2023/04/12 05:31:22;;;;;;;1.70;0.70;;;13.80;84.00;;;;;;4984260;28;20484;-65
2023/04/12 05:33:53;;;;;;;1.57;0.60;;;13.80;84.00;;;;;;4983965;28;20456;-64
2023/04/12 05:36:27;;;;;;;2.07;0.77;;;13.80;84.20;;;;;;4983158;28;21098;-66
2023/04/12 05:38:57;;;;;;;1.67;0.70;;;13.80;84.30;;;;;;4978390;28;20479;-66
2023/04/12 05:41:26;;;;;;;1.90;0.70;;;13.80;84.40;;;;;;4966991;28;20492;-65
2023/04/12 05:43:54;;;;;;;1.47;0.70;;;13.80;84.60;;;;;;4963435;28;21024;-65
2023/04/12 05:46:23;;;;;;;1.40;0.70;;;13.80;84.60;;;;;;4978466;28;20481;-66
2023/04/12 05:48:52;;;;;;;1.40;0.57;;;13.70;84.60;;;;;;4981031;28;20552;-66
2023/04/12 05:51:22;;;;;;;1.60;0.70;;;13.70;84.70;;;;;;4983266;28;20457;-65
2023/04/12 05:54:05;;;;;;;3.37;0.70;;;13.80;85.00;;;;;;5004179;28;20543;-66
2023/04/12 05:56:36;;;;;;;1.60;0.70;;;13.70;84.80;;;;;;4987585;28;20452;-65
2023/04/12 05:59:05;;;;;;;1.40;0.60;;;13.70;84.90;;;;;;4976822;28;20475;-64
2023/04/12 06:01:33;;;;;;;1.53;0.70;;;13.70;85.10;;;;;;4987961;28;20813;-64
2023/04/12 06:04:02;;;;;;;1.73;1.00;;;13.80;85.30;;;;;;4979378;28;20480;-65
2023/04/12 06:06:31;;;;;;;1.60;0.90;;;13.70;85.30;;;;;;5000985;28;20778;-65
2023/04/12 06:09:03;;;;;;;1.20;0.63;;;13.70;85.50;;;;;;4984394;28;20492;-65
2023/04/12 06:11:33;;;;;;;1.57;0.73;;;13.70;85.50;;;;;;4999126;28;21019;-64
2023/04/12 06:14:03;;;;;;;1.93;0.80;;;13.70;86.80;;;;;;4985940;28;20506;-66
2023/04/12 06:16:31;;;;;;;1.40;0.60;;;13.70;85.60;;;;;;4988775;28;20989;-65
2023/04/12 06:19:00;;;;;;;3.57;0.60;;;13.70;85.80;;;;;;4986347;28;20469;-66
2023/04/12 06:21:29;;;;;;;1.40;0.60;;;13.70;85.70;;;;;;4985995;28;20450;-65
2023/04/12 06:23:58;;;;;;;1.50;0.70;;;13.70;85.70;;;;;;4982980;28;20481;-64
2023/04/12 06:26:28;;;;;;;1.50;0.70;;;13.70;85.70;;;;;;4998144;28;20944;-65
2023/04/12 06:29:07;;;;;;;1.30;0.70;;;13.70;85.80;;;;;;5001358;28;20467;-65
2023/04/12 06:31:36;;;;;;;2.10;0.70;;;13.70;86.00;;;;;;5001450;28;20448;-66
2023/04/12 06:34:05;;;;;;;1.60;0.60;;;13.70;86.10;;;;;;4986880;28;20468;-66
2023/04/12 06:36:40;;;;;;;1.43;0.50;;;13.70;86.30;;;;;;4983763;28;20453;-67
2023/04/12 06:39:10;;;;;;;1.87;0.80;;;13.70;86.50;;;;;;4986979;28;20481;-66
2023/04/12 06:41:42;;;;;;;1.50;0.70;;;13.70;86.60;;;;;;4977888;28;20538;-64
2023/04/12 06:44:10;;;;;;;1.50;0.87;;;13.70;86.60;;;;;;4975747;28;20939;-64
2023/04/12 06:46:39;;;;;;;1.40;0.60;;;13.70;86.70;;;;;;4988208;28;21767;-65
2023/04/12 06:49:08;;;;;;;1.20;0.43;;;13.70;86.90;;;;;;4987942;28;20456;-66
2023/04/12 06:51:36;;;;;;;1.67;0.57;;;13.70;87.00;;;;;;4966230;28;20457;-66
2023/04/12 06:54:05;;;;;;;1.73;0.67;;;13.70;86.90;;;;;;4988285;28;20467;-66
2023/04/12 06:56:33;;;;;;;1.40;0.60;;;13.70;87.00;;;;;;4981845;28;20437;-73
2023/04/12 06:59:04;;;;;;;1.60;0.70;;;13.70;87.00;;;;;;4988723;28;20901;-73
2023/04/12 07:01:33;;;;;;;2.07;0.87;;;13.70;86.90;;;;;;4985763;28;20860;-74
2023/04/12 07:04:01;;;;;;;1.60;0.70;;;13.60;86.80;;;;;;4984310;28;20453;-73
2023/04/12 07:06:31;;;;;;;1.60;0.50;;;13.60;86.80;;;;;;4988787;28;20460;-74
2023/04/12 07:09:00;;;;;;;1.40;0.70;;;13.60;86.80;;;;;;4998966;28;21004;-73
2023/04/12 07:11:30;;;;;;;1.50;0.60;;;13.60;86.80;;;;;;4983824;28;20451;-73
2023/04/12 07:13:59;;;;;;;1.40;0.70;;;13.60;86.80;;;;;;4988676;28;20567;-73
2023/04/12 07:16:31;;;;;;;1.70;0.70;;;13.60;86.80;;;;;;4988520;28;20454;-73
2023/04/12 07:19:00;;;;;;;1.43;0.77;;;13.60;86.80;;;;;;4976724;28;20472;-74
2023/04/12 07:21:28;;;;;;;1.57;0.60;;;13.60;86.80;;;;;;4978298;28;20543;-73
2023/04/12 07:23:57;;;;;;;1.30;0.60;;;13.60;86.80;;;;;;4986070;28;20979;-73
2023/04/12 07:26:26;;;;;;;1.80;0.80;;;13.60;86.80;;;;;;4990455;28;20460;-74
2023/04/12 07:28:54;;;;;;;1.97;0.70;;;13.60;86.80;;;;;;4975847;28;20470;-73
2023/04/12 07:31:23;;;;;;;1.50;0.60;;;13.60;86.80;;;;;;5000794;28;20944;-73
2023/04/12 07:33:53;;;;;;;1.40;0.70;;;13.60;86.80;;;;;;4985532;28;20567;-73
2023/04/12 07:36:22;;;;;;;1.70;0.70;;;13.60;86.90;;;;;;4981508;28;20524;-73
2023/04/12 07:38:54;;;;;;;1.80;0.93;;;13.60;87.30;;;;;;4985846;28;20508;-73
2023/04/12 07:41:45;;;;;;;2.07;0.90;;;13.50;89.20;;;;;;4976144;28;20447;-74
2023/04/12 07:44:13;;;;;;;2.67;0.60;;;13.50;89.40;;;;;;4979264;28;20546;-73
2023/04/12 07:46:42;;;;;;;2.50;0.80;;;13.50;89.10;;;;;;4987434;28;20977;-73
2023/04/12 07:49:12;;;;;;;1.87;0.67;;;13.50;89.20;;;;;;4985174;28;20486;-74
2023/04/12 07:51:41;;;;;;;1.50;0.73;;;13.50;89.10;;;;;;4986132;28;20460;-73
2023/04/12 07:54:12;;;;;;;1.40;0.70;;;13.50;90.00;;;;;;4978645;28;20857;-73
2023/04/12 07:56:40;;;;;;;1.87;0.77;;;13.60;89.00;;;;;;4987134;28;20994;-74
2023/04/12 07:59:08;;;;;;;2.73;0.90;;;13.60;88.90;;;;;;4981861;28;20464;-74
2023/04/12 08:01:37;;;;;;;2.03;0.70;;;13.50;90.00;;;;;;4980981;28;20467;-64
2023/04/12 08:04:05;;;;;;;1.80;0.57;;;13.50;90.00;;;;;;4980796;28;20904;-65
2023/04/12 08:06:36;;;;;;;1.50;0.67;;;13.50;89.70;;;;;;4995628;28;20455;-65
2023/04/12 08:09:04;;;;;;;1.60;0.77;;;13.50;89.60;;;;;;4980819;28;20480;-65
2023/04/12 08:11:34;;;;;;;2.10;1.13;;;13.50;89.40;;;;;;4974041;28;20540;-65
2023/04/12 08:14:02;;;;;;;2.83;0.80;;;13.50;90.00;;;;;;4977764;28;20584;-65
2023/04/12 08:16:31;;;;;;;2.30;0.97;;;13.60;89.70;;;;;;4986898;28;20523;-65
2023/04/12 08:18:59;;;;;;;1.67;0.97;;;13.60;90.00;;;;;;4985011;28;20475;-66
2023/04/12 08:21:28;;;;;;;2.50;1.00;;;13.60;90.00;;;;;;4987132;28;20540;-65
2023/04/12 08:24:00;;;;;;;1.53;0.70;;;13.60;90.00;;;;;;4987256;28;20810;-64
2023/04/12 08:26:29;;;;;;;1.43;0.90;;;13.60;89.80;;;;;;4986515;28;20455;-66
2023/04/12 08:28:57;;;;;;;1.40;0.90;;;13.60;89.90;;;;;;4986355;28;20566;-66
2023/04/12 08:31:25;;;;;;;2.03;0.90;;;13.60;89.70;;;;;;4979394;28;20454;-66
2023/04/12 08:33:55;;;;;;;2.57;0.80;;;13.60;89.90;;;;;;4984023;28;20463;-64
2023/04/12 08:36:24;;;;;;;1.30;0.70;;;13.60;90.00;;;;;;4982568;28;20488;-65
2023/04/12 08:38:54;;;;;;;1.33;0.60;;;13.50;91.20;;;;;;4974048;28;20527;-65
2023/04/12 08:41:24;;;;;;;4.50;1.80;;;13.30;93.10;;;;;;4984148;28;20448;-66
2023/04/12 08:43:54;;;;;;;1.63;0.80;;;13.30;92.90;;;;;;4981303;28;20474;-65
2023/04/12 08:46:22;;;;;;;3.13;1.03;;;13.30;92.80;;;;;;4989481;28;20464;-65
2023/04/12 08:48:55;;;;;;;5.40;1.30;;;13.30;92.70;;;;;;4982075;28;20504;-66
2023/04/12 08:51:23;;;;;;;2.47;0.80;;;13.40;92.90;;;;;;4993579;28;20453;-66
2023/04/12 08:53:52;;;;;;;6.20;1.07;;;13.40;92.70;;;;;;4981076;28;20448;-65
2023/04/12 08:56:24;;;;;;;3.00;0.90;;;13.40;92.70;;;;;;4984398;28;20885;-65
2023/04/12 08:58:53;;;;;;;2.10;0.80;;;13.40;92.80;;;;;;4985302;28;20597;-66
2023/04/12 09:01:22;;;;;;;1.10;0.60;;;13.40;93.30;;;;;;4977821;28;20448;-65
2023/04/12 09:03:50;;;;;;;6.00;1.10;;;13.40;92.90;;;;;;4999587;28;20483;-65
2023/04/12 09:06:19;;;;;;;1.17;0.70;;;13.50;93.10;;;;;;4990165;28;21032;-74
2023/04/12 09:08:55;;;;;;;2.80;1.80;;;13.50;93.20;;;;;;4996573;28;20856;-75
2023/04/12 09:11:27;;;;;;;10.60;1.87;;;13.50;93.30;;;;;;4980700;28;20483;-66
2023/04/12 09:13:56;;;;;;;6.80;1.20;;;13.50;94.80;;;;;;4981369;28;20460;-65
2023/04/12 09:16:37;;;;;;;10.73;1.20;;;13.50;94.90;;;;;;4977872;28;20453;-66
2023/04/12 09:19:06;;;;;;;5.70;0.90;;;13.50;95.80;;;;;;4985080;28;20567;-66
2023/04/12 09:21:35;;;;;;;13.67;2.77;;;13.50;96.30;;;;;;4987623;28;20536;-65
2023/04/12 09:24:08;;;;;;;9.67;1.97;;;13.50;95.90;;;;;;4982321;28;20500;-65
2023/04/12 09:26:42;;;;;;;38.77;10.00;;;13.50;95.60;;;;;;4978840;28;20445;-73
2023/04/12 09:29:24;;;;;;;73.00;24.73;;;13.50;95.50;;;;;;4977543;28;20465;-72
2023/04/12 09:31:57;;;;;;;127.50;37.50;;;13.50;95.20;;;;;;4986713;28;21049;-73
2023/04/12 09:34:25;;;;;;;234.90;69.03;;;13.60;95.20;;;;;;4987250;28;21260;-73
2023/04/12 09:36:55;;;;;;;137.53;44.33;;;13.60;95.10;;;;;;4977436;28;20450;-72
2023/04/12 09:39:33;;;;;;;205.93;60.70;;;13.60;95.40;;;;;;4974788;28;20501;-73
2023/04/12 09:42:08;;;;;;;40.27;15.60;;;13.60;95.70;;;;;;4981999;28;20454;-73
2023/04/12 09:44:57;;;;;;;27.33;11.40;;;13.50;97.20;;;;;;4984246;28;20476;-73
2023/04/12 09:47:38;;;;;;;51.60;18.70;;;13.40;99.90;;;;;;4976280;28;20701;-73
2023/04/12 09:50:08;;;;;;;85.53;26.40;;;13.30;99.90;;;;;;4976737;28;20476;-73
2023/04/12 09:52:38;;;;;;;93.43;30.43;;;13.30;99.60;;;;;;4980803;28;20799;-73
2023/04/12 09:55:09;;;;;;;109.90;37.63;;;13.40;98.90;;;;;;4980808;28;20481;-73
2023/04/12 09:57:42;;;;;;;119.10;40.60;;;13.40;98.40;;;;;;4979436;28;20452;-73
2023/04/12 10:00:15;;;;;;;107.63;38.53;;;13.40;98.20;;;;;;4983961;28;21005;-73
2023/04/12 10:02:47;;;;;;;63.37;24.80;;;13.50;98.10;;;;;;4979620;28;20440;-73
2023/04/12 10:05:19;;;;;;;52.80;21.33;;;13.40;98.20;;;;;;4983408;28;20476;-73
2023/04/12 13:31:47;;;;;;;6.17;2.70;;;13.80;92.50;;;;;;5143381;27;20583;-47
2023/04/12 13:34:16;;;;;;;9.23;3.33;;;13.90;92.70;;;;;;5083281;28;20511;-49
2023/04/12 13:36:44;;;;;;;9.03;2.97;;;13.90;92.90;;;;;;5079431;28;20562;-49
2023/04/12 13:39:13;;;;;;;7.20;2.20;;;13.90;93.10;;;;;;5064515;28;20481;-50
2023/04/12 13:41:41;;;;;;;5.53;2.10;;;13.90;93.20;;;;;;5064332;28;20473;-49
2023/04/12 13:44:10;;;;;;;10.10;3.20;;;13.90;93.20;;;;;;5051881;28;20485;-49
2023/04/12 13:46:42;;;;;;;5.53;2.20;;;13.90;93.20;;;;;;5039904;28;20453;-47
2023/04/12 13:49:12;;;;;;;6.73;2.07;;;14.00;93.30;;;;;;5042701;28;20479;-50
2023/04/12 13:51:41;;;;;;;12.10;2.63;;;14.00;93.30;;;;;;5042975;28;20471;-50
2023/04/12 13:54:10;;;;;;;4.83;1.73;;;14.00;93.30;;;;;;5090191;28;20483;-49
2023/04/12 13:56:42;;;;;;;7.53;2.90;;;14.00;93.30;;;;;;5080835;28;20454;-51
2023/04/12 13:59:11;;;;;;;9.53;1.90;;;14.00;93.30;;;;;;5096764;28;20461;-51
2023/04/12 14:01:40;;;;;;;6.03;2.80;;;14.00;93.30;;;;;;5064621;28;20468;-48
2023/04/12 14:04:09;;;;;;;7.53;2.00;;;14.00;93.30;;;;;;5066611;28;20527;-48
2023/04/12 14:06:39;;;;;;;5.60;2.10;;;14.00;93.30;;;;;;5078632;28;20920;-49
2023/04/12 14:09:07;;;;;;;5.03;2.00;;;14.00;93.30;;;;;;5046305;28;20468;-48
2023/04/12 14:11:46;;;;;;;4.33;2.27;;;14.00;93.30;;;;;;5045445;28;21050;-49
2023/04/12 14:14:15;;;;;;;5.17;2.10;;;14.00;93.30;;;;;;5041306;28;20490;-48
2023/04/12 14:16:44;;;;;;;3.73;1.97;;;14.00;93.30;;;;;;5061253;28;20459;-49
2023/04/12 14:19:13;;;;;;;5.70;1.93;;;14.00;93.30;;;;;;5058525;28;20569;-52
2023/04/12 14:21:43;;;;;;;3.43;1.80;;;14.00;93.20;;;;;;5043641;28;20452;-51
2023/04/12 14:24:12;;;;;;;3.20;2.23;;;14.10;93.10;;;;;;5052054;28;20558;-52
2023/04/12 14:26:41;;;;;;;5.80;2.50;;;14.20;92.80;;;;;;5060328;28;20809;-53
2023/04/12 14:29:10;;;;;;;14.00;2.20;;;14.10;92.10;;;;;;5064281;27;20947;-49
2023/04/12 14:31:40;;;;;;;11.40;4.07;;;14.10;91.10;;;;;;5043948;28;20530;-49
2023/04/12 14:34:09;;;;;;;6.00;2.50;;;14.10;91.30;;;;;;5054667;28;20563;-49
2023/04/12 14:36:38;;;;;;;8.10;2.17;;;14.10;87.60;;;;;;5038952;28;21147;-48
2023/04/12 14:39:10;;;;;;;4.37;1.47;;;14.10;85.70;;;;;;5054725;28;20490;-48
2023/04/12 14:41:42;;;;;;;12.67;1.90;;;13.90;88.40;;;;;;5060149;28;20656;-49
2023/04/12 14:44:12;;;;;;;7.47;1.97;;;13.80;90.10;;;;;;5052642;28;20459;-50
2023/04/12 14:46:41;;;;;;;6.57;2.37;;;13.80;90.40;;;;;;5051569;28;20510;-49
2023/04/12 14:49:12;;;;;;;2.57;1.30;;;13.80;90.50;;;;;;5046833;28;20460;-49
2023/04/12 14:51:41;;;;;;;4.20;1.97;;;13.80;90.60;;;;;;5030262;28;20555;-50
2023/04/12 14:54:11;;;;;;;5.10;2.13;;;13.90;90.90;;;;;;5031944;28;20461;-49
2023/04/12 14:56:40;;;;;;;2.33;1.40;;;13.90;91.20;;;;;;5047347;28;20435;-50
2023/04/12 14:59:18;;;;;;;6.35;2.40;;;13.80;92.10;;;;;;5028819;28;21144;-48
2023/04/12 15:01:47;;;;;;;2.60;1.33;;;13.60;93.30;;;;;;5048227;28;20263;-50
2023/04/12 15:04:16;;;;;;;4.73;1.40;;;13.60;93.30;;;;;;5031974;28;20468;-49
2023/04/12 15:06:46;;;;;;;4.33;1.47;;;13.60;93.30;;;;;;5034395;28;20435;-50
2023/04/12 15:09:17;;;;;;;5.93;1.60;;;13.70;93.10;;;;;;5058770;28;20475;-50
2023/04/12 15:11:53;;;;;;;2.90;1.80;;;13.80;93.10;;;;;;5065220;28;20475;-50
2023/04/12 15:14:23;;;;;;;2.37;1.97;;;13.80;93.10;;;;;;5037255;28;20517;-49
2023/04/12 15:16:55;;;;;;;4.27;1.40;;;13.80;92.90;;;;;;5040439;28;20447;-48
2023/04/12 15:19:24;;;;;;;3.83;1.27;;;13.80;92.70;;;;;;5045169;28;20992;-51
2023/04/12 15:21:54;;;;;;;3.77;1.80;;;13.80;92.70;;;;;;5046731;28;20464;-51
2023/04/12 15:24:25;;;;;;;3.53;1.40;;;13.80;92.70;;;;;;5046321;28;20469;-49
2023/04/12 15:26:55;;;;;;;3.27;1.30;;;13.90;92.80;;;;;;5028031;28;20475;-50
2023/04/12 15:29:26;;;;;;;6.17;1.40;;;13.80;92.70;;;;;;5028961;28;20467;-49
2023/04/12 15:31:59;;;;;;;3.00;1.87;;;13.80;92.70;;;;;;5062857;28;20899;-50
2023/04/12 15:34:28;;;;;;;1.90;1.50;;;13.90;92.40;;;;;;5060193;28;20460;-50
2023/04/12 15:36:58;;;;;;;3.73;1.20;;;13.90;92.50;;;;;;5029995;28;20529;-48
2023/04/12 15:39:29;;;;;;;2.00;1.17;;;13.90;92.30;;;;;;5045858;28;20468;-50
2023/04/12 15:41:59;;;;;;;3.93;1.40;;;13.80;92.10;;;;;;5027102;28;20500;-48
2023/04/12 15:44:32;;;;;;;2.80;1.23;;;13.80;92.20;;;;;;5061785;28;20495;-50
2023/04/12 15:47:02;;;;;;;2.80;1.23;;;13.90;92.30;;;;;;5048217;28;20447;-49
2023/04/12 15:49:39;;;;;;;3.07;1.37;;;13.80;92.20;;;;;;5042907;28;20496;-48
2023/04/12 15:52:09;;;;;;;2.97;1.43;;;13.80;92.30;;;;;;5024953;28;20476;-49
2023/04/12 15:54:41;;;;;;;2.07;1.37;;;13.80;92.30;;;;;;5029645;28;20567;-49
2023/04/12 15:57:11;;;;;;;2.47;1.23;;;13.80;92.10;;;;;;5024358;28;20433;-50
2023/04/12 15:59:40;;;;;;;2.80;1.40;;;13.80;92.20;;;;;;5059083;28;20522;-50
2023/04/12 16:02:09;;;;;;;3.10;1.37;;;13.80;92.00;;;;;;5042864;28;20572;-48
2023/04/12 16:04:39;;;;;;;2.03;1.37;;;13.80;92.30;;;;;;5028149;28;21001;-50
2023/04/12 16:07:08;;;;;;;2.03;1.63;;;13.80;92.50;;;;;;5043267;28;20459;-49
2023/04/12 16:09:41;;;;;;;2.27;1.23;;;13.80;92.40;;;;;;5072315;28;20545;-49
2023/04/12 16:12:10;;;;;;;2.50;1.00;;;13.80;92.50;;;;;;5078492;28;20562;-49
2023/04/12 16:14:39;;;;;;;2.40;1.70;;;13.80;92.50;;;;;;5031897;28;20470;-50
2023/04/12 16:17:08;;;;;;;1.30;1.00;;;13.80;92.50;;;;;;5037429;28;20453;-50
2023/04/12 16:19:37;;;;;;;2.40;1.20;;;13.80;92.50;;;;;;5027303;28;20626;-50
2023/04/12 16:22:06;;;;;;;3.20;1.30;;;13.80;92.50;;;;;;5029023;28;20703;-50
2023/04/12 16:24:36;;;;;;;2.20;1.13;;;13.80;92.40;;;;;;5029491;28;20486;-50
2023/04/12 16:27:06;;;;;;;3.07;1.10;;;13.80;92.60;;;;;;5045213;28;20505;-49
2023/04/12 16:29:35;;;;;;;2.83;1.37;;;13.80;92.40;;;;;;5035605;28;21255;-48